D/T METAR WX W/DIR W/SPE G/SPE TEMP DEWP
16/01/19 02:50 EGDX 160250Z AUTO 23014KT 9999 SCT015/// BKN048/// 09/07 Q1009 SW (230°) 16.1mph 9°C 7°C
16/01/19 01:50 EGDX 160150Z AUTO 23016KT 9999 BKN014/// BKN019/// 09/07 Q1010 SW (230°) 18.4mph 9°C 7°C
16/01/19 00:50 EGDX 160050Z AUTO 23013KT 9999 SCT015/// BKN027/// 09/07 Q1011 SW (230°) 15.0mph 9°C 7°C
15/01/19 23:50 EGDX 152350Z AUTO 23013KT 9999 BKN014/// 09/07 Q1012 SW (230°) 15.0mph 9°C 7°C
15/01/19 22:50 EGDX 152250Z AUTO 23012KT 9999 OVC014/// 09/07 Q1012 SW (230°) 13.8mph 9°C 7°C
15/01/19 21:50 EGDX 152150Z AUTO 24011KT 9999 OVC015/// 09/07 Q1013 WSW (240°) 12.7mph 9°C 7°C
15/01/19 20:50 EGDX 152050Z AUTO 24011KT 9999 OVC017/// 09/07 Q1014 WSW (240°) 12.7mph 9°C 7°C
15/01/19 19:50 EGDX 151950Z AUTO 24010KT 9999 OVC020/// 09/07 Q1015 WSW (240°) 11.5mph 9°C 7°C
15/01/19 18:50 EGDX 151850Z AUTO 23007KT 9999 BKN023/// 09/06 Q1015 SW (230°) 8.1mph 9°C 6°C
15/01/19 17:50 EGDX 151750Z AUTO 24008KT 9999 FEW002/// BKN018/// 08/08 Q1016 RERA WSW (240°) 9.2mph 8°C 8°C
15/01/19 16:36 EGDX 151636Z 26013KT 3500 -RA SCT003 BKN008 08/08 Q1016 YLO2 -RA W (260°) 15.0mph 8°C 8°C
15/01/19 15:32 EGDX 151532Z 26012KT 3500 RA BKN005 BKN011 08/08 Q1017 YLO1 RA W (260°) 13.8mph 8°C 8°C
15/01/19 14:50 EGDX 151450Z 26011KT 9999 FEW003 SCT012 BKN026 09/08 Q1017 GRN W (260°) 12.7mph 9°C 8°C
15/01/19 13:50 EGDX 151350Z 27011KT 9000 3500SW -DZ FEW003 SCT007 BKN014 09/08 Q1018 YLO1 -DZ W (270°) 12.7mph 9°C 8°C
15/01/19 12:06 EGDX 151206Z 27008KT 3000 -RA BKN005 BKN013 09/08 Q1019 YLO1 -RA W (270°) 9.2mph 9°C 8°C
15/01/19 11:33 EGDX 151133Z 27009KT 7000 -DZ SCT004 BKN017 09/08 Q1020 REDZ YLO2 -DZ W (270°) 10.4mph 9°C 8°C
15/01/19 10:50 EGDX 151050Z 27011KT 3500 DZ SCT008 BKN015 09/07 Q1020 YLO1 DZ W (270°) 12.7mph 9°C 7°C
15/01/19 09:50 EGDX 150950Z 27011KT 9999 FEW015 BKN021 09/07 Q1020 WHT W (270°) 12.7mph 9°C 7°C
15/01/19 09:41 EGDX 150941Z 27011KT 9999 FEW003 SCT015 BKN021 09/07 Q1020 WHT W (270°) 12.7mph 9°C 7°C
15/01/19 08:50 EGDX 150850Z 25013KT 3000 RADZ BKN003 08/08 Q1020 YLO2 RA DZ WSW (250°) 15.0mph 8°C 8°C
15/01/19 07:50 EGDX 150750Z AUTO 24012KT 9999 FEW006/// BKN017/// 08/07 Q1020 REDZ WSW (240°) 13.8mph 8°C 7°C
15/01/19 06:50 EGDX 150650Z AUTO 26008KT 9000 BR BKN004/// 08/08 Q1020 REDZ BR W (260°) 9.2mph 8°C 8°C
15/01/19 05:50 EGDX 150550Z AUTO 27009KT 9999 FEW007/// BKN028/// 08/07 Q1021 RERA W (270°) 10.4mph 8°C 7°C
15/01/19 04:50 EGDX 150450Z AUTO 27007KT 7000 BR SCT016/// BKN024/// 08/07 Q1021 REDZ BR W (270°) 8.1mph 8°C 7°C
15/01/19 03:50 EGDX 150350Z AUTO 26010KT 9999 BKN027/// 08/06 Q1022 W (260°) 11.5mph 8°C 6°C
15/01/19 02:50 EGDX 150250Z AUTO 27011KT 9999 OVC026/// 09/06 Q1022 W (270°) 12.7mph 9°C 6°C
15/01/19 01:50 EGDX 150150Z AUTO 27010KT 9999 OVC023/// 08/06 Q1023 W (270°) 11.5mph 8°C 6°C
15/01/19 00:50 EGDX 150050Z AUTO 27009KT 9999 OVC023/// 08/05 Q1023 W (270°) 10.4mph 8°C 5°C
14/01/19 23:50 EGDX 142350Z AUTO 28009KT 9999 OVC026/// 08/05 Q1023 W (280°) 10.4mph 8°C 5°C
14/01/19 22:50 EGDX 142250Z AUTO 28004KT 9999 OVC030/// 07/03 Q1024 W (280°) 4.6mph 7°C 3°C
14/01/19 21:50 EGDX 142150Z AUTO 21002KT 9999 SCT030/// 06/02 Q1024 SSW (210°) 2.3mph 6°C 2°C
14/01/19 20:50 EGDX 142050Z AUTO 28005KT 9999 FEW240/// 06/02 Q1024 W (280°) 5.8mph 6°C 2°C
14/01/19 19:50 EGDX 141950Z AUTO 29006KT 9999 FEW037/// 07/02 Q1024 WNW (290°) 6.9mph 7°C 2°C
14/01/19 18:50 EGDX 141850Z AUTO 29007KT 9999 OVC035/// 08/04 Q1024 WNW (290°) 8.1mph 8°C 4°C
14/01/19 17:50 EGDX 141750Z 28006KT 9999 BKN034 08/03 Q1024 BLU W (280°) 6.9mph 8°C 3°C
14/01/19 16:50 EGDX 141650Z 29006KT 9999 BKN034 08/04 Q1024 BLU WNW (290°) 6.9mph 8°C 4°C
14/01/19 15:50 EGDX 141550Z 31006KT 9999 BKN035 08/03 Q1024 BLU NW (310°) 6.9mph 8°C 3°C
14/01/19 14:50 EGDX 141450Z 30010KT 9999 BKN033 08/04 Q1023 BLU WNW (300°) 11.5mph 8°C 4°C
14/01/19 13:50 EGDX 141350Z 28010KT 9999 BKN034 09/03 Q1023 BLU W (280°) 11.5mph 9°C 3°C
14/01/19 12:50 EGDX 141250Z 32009KT 9999 BKN033 09/02 Q1023 BLU NW (320°) 10.4mph 9°C 2°C
14/01/19 11:50 EGDX 141150Z 30009KT 9999 BKN033 09/02 Q1023 BLU WNW (300°) 10.4mph 9°C 2°C
14/01/19 10:50 EGDX 141050Z 31008KT 9999 BKN035 08/03 Q1023 BLU NW (310°) 9.2mph 8°C 3°C
14/01/19 09:50 EGDX 140950Z 29009KT 9999 BKN034 08/03 Q1023 BLU WNW (290°) 10.4mph 8°C 3°C
14/01/19 08:50 EGDX 140850Z 29006KT 9999 BKN034 08/03 Q1023 BLU WNW (290°) 6.9mph 8°C 3°C
14/01/19 07:50 EGDX 140750Z 30010KT 9999 BKN034 08/04 Q1022 BLU WNW (300°) 11.5mph 8°C 4°C
14/01/19 06:50 EGDX 140650Z AUTO 28009KT 9999 BKN035/// 08/04 Q1021 W (280°) 10.4mph 8°C 4°C
14/01/19 05:50 EGDX 140550Z AUTO 29010KT 9999 OVC029/// 08/04 Q1021 WNW (290°) 11.5mph 8°C 4°C
14/01/19 04:50 EGDX 140450Z AUTO 30009KT 9999 OVC033/// 08/03 Q1020 WNW (300°) 10.4mph 8°C 3°C
14/01/19 03:50 EGDX 140350Z AUTO 29008KT 9999 BKN034/// 08/03 Q1020 WNW (290°) 9.2mph 8°C 3°C
14/01/19 02:50 EGDX 140250Z AUTO 29009KT 9999 BKN038/// 08/03 Q1019 WNW (290°) 10.4mph 8°C 3°C
14/01/19 01:50 EGDX 140150Z AUTO 30010KT 9999 BKN038/// 08/02 Q1019 WNW (300°) 11.5mph 8°C 2°C
14/01/19 00:50 EGDX 140050Z AUTO 30010KT 9999 OVC038/// 08/03 Q1019 WNW (300°) 11.5mph 8°C 3°C
13/01/19 23:50 EGDX 132350Z AUTO 29007KT 9999 BKN039/// 09/02 Q1019 WNW (290°) 8.1mph 9°C 2°C
13/01/19 22:50 EGDX 132250Z AUTO 32008KT 9999 FEW250/// 08/02 Q1018 NW (320°) 9.2mph 8°C 2°C
13/01/19 21:50 EGDX 132150Z AUTO 31018KT 9999 FEW250/// 09/03 Q1016 NW (310°) 20.7mph 9°C 3°C
13/01/19 20:50 EGDX 132050Z AUTO 30018KT 9999 FEW033/// 10/06 Q1016 WNW (300°) 20.7mph 10°C 6°C
13/01/19 19:50 EGDX 131950Z AUTO 30016KT 9999 FEW026/// BKN030/// 10/07 Q1016 WNW (300°) 18.4mph 10°C 7°C
13/01/19 18:50 EGDX 131850Z AUTO 29018KT 9999 BKN025/// BKN033/// 10/08 Q1015 WNW (290°) 20.7mph 10°C 8°C
13/01/19 17:50 EGDX 131750Z AUTO 29014KT 9999 BKN021/// BKN027/// 10/08 Q1015 WNW (290°) 16.1mph 10°C 8°C
13/01/19 16:50 EGDX 131650Z AUTO 28013KT 9999 BKN019/// BKN025/// 10/08 Q1015 W (280°) 15.0mph 10°C 8°C
13/01/19 15:50 EGDX 131550Z 28018KT 9999 SCT008 BKN013 10/08 Q1015 GRN W (280°) 20.7mph 10°C 8°C
13/01/19 14:50 EGDX 131450Z 28017KT 9999 BKN007 10/08 Q1015 GRN W (280°) 19.6mph 10°C 8°C
13/01/19 13:50 EGDX 131350Z 28020KT 7000 -DZ OVC007 09/08 Q1016 GRN -DZ W (280°) 23.0mph 9°C 8°C
13/01/19 12:50 EGDX 131250Z 27016KT 3500 RADZ OVC006 09/08 Q1016 YLO1 RA DZ W (270°) 18.4mph 9°C 8°C
13/01/19 11:50 EGDX 131150Z 26015KT 9999 BKN010 10/08 Q1017 GRN W (260°) 17.3mph 10°C 8°C
13/01/19 10:50 EGDX 131050Z 27017KT 9999 BKN012 10/08 Q1018 GRN W (270°) 19.6mph 10°C 8°C
13/01/19 09:50 EGDX 130950Z 27018KT 9999 FEW013 SCT017 BKN037 09/08 Q1018 WHT W (270°) 20.7mph 9°C 8°C
13/01/19 08:50 EGDX 130850Z 26017KT 9999 BKN020 09/08 Q1018 WHT W (260°) 19.6mph 9°C 8°C
13/01/19 07:50 EGDX 130750Z AUTO 27020G30KT 9999 BKN017/// 09/08 Q1019 W (270°) 23.0mph 34.5mph 9°C 8°C
13/01/19 06:50 EGDX 130650Z AUTO 27018KT 9999 OVC014/// 09/08 Q1019 W (270°) 20.7mph 9°C 8°C
13/01/19 05:50 EGDX 130550Z AUTO 26014KT 9999 FEW007/// BKN015/// 09/08 Q1019 W (260°) 16.1mph 9°C 8°C
13/01/19 04:50 EGDX 130450Z AUTO 26015KT 9999 BKN005/// BKN015/// 09/08 Q1020 W (260°) 17.3mph 9°C 8°C
13/01/19 03:50 EGDX 130350Z AUTO 28017KT 9999 OVC004/// 09/09 Q1021 W (280°) 19.6mph 9°C 9°C
13/01/19 02:50 EGDX 130250Z AUTO 28018KT 9999 BKN005/// 09/08 Q1021 W (280°) 20.7mph 9°C 8°C
13/01/19 01:50 EGDX 130150Z AUTO 28016KT 9999 BKN009/// 10/08 Q1021 W (280°) 18.4mph 10°C 8°C
13/01/19 00:50 EGDX 130050Z AUTO 28017KT 9999 FEW007/// BKN013/// 10/08 Q1022 W (280°) 19.6mph 10°C 8°C
12/01/19 23:50 EGDX 122350Z AUTO 29018G28KT 9999 FEW007/// OVC010/// 10/08 Q1022 WNW (290°) 20.7mph 32.2mph 10°C 8°C
12/01/19 22:50 EGDX 122250Z AUTO 29018KT 9999 BKN013/// 10/08 Q1023 WNW (290°) 20.7mph 10°C 8°C
12/01/19 21:50 EGDX 122150Z AUTO 29016KT 9999 BKN008/// 10/08 Q1023 WNW (290°) 18.4mph 10°C 8°C
12/01/19 20:50 EGDX 122050Z AUTO 29018KT 9999 OVC010/// 10/08 Q1023 WNW (290°) 20.7mph 10°C 8°C
12/01/19 19:50 EGDX 121950Z AUTO 29019KT 9999 OVC007/// 10/08 Q1023 WNW (290°) 21.9mph 10°C 8°C
12/01/19 18:50 EGDX 121850Z AUTO 29015KT 9999 OVC014/// 09/08 Q1024 WNW (290°) 17.3mph 9°C 8°C
12/01/19 17:50 EGDX 121750Z AUTO 29014KT 9999 OVC016/// 09/07 Q1024 WNW (290°) 16.1mph 9°C 7°C
12/01/19 16:50 EGDX 121650Z AUTO 28015KT 9999 BKN020/// 09/06 Q1024 W (280°) 17.3mph 9°C 6°C
12/01/19 15:50 EGDX 121550Z 29015KT 9999 BKN023 09/06 Q1024 WHT WNW (290°) 17.3mph 9°C 6°C
12/01/19 14:50 EGDX 121450Z 29016KT 9999 FEW025 SCT027 BKN032 09/06 Q1023 BLU WNW (290°) 18.4mph 9°C 6°C
12/01/19 13:50 EGDX 121350Z 29013KT 9999 SCT023 BKN030 09/07 Q1024 WHT WNW (290°) 15.0mph 9°C 7°C
12/01/19 12:50 EGDX 121250Z 29011KT 9999 SCT015 BKN023 09/07 Q1025 WHT WNW (290°) 12.7mph 9°C 7°C
12/01/19 11:50 EGDX 121150Z 29014KT 9999 SCT014 BKN023 10/07 Q1025 GRN WNW (290°) 16.1mph 10°C 7°C
12/01/19 10:50 EGDX 121050Z 29015KT 9999 SCT006 BKN012 10/08 Q1025 YLO1 WNW (290°) 17.3mph 10°C 8°C
12/01/19 09:50 EGDX 120950Z 28016G26KT 9000 -DZ SCT005 BKN013 BKN019 10/09 Q1025 YLO1 -DZ W (280°) 18.4mph 29.9mph 10°C 9°C
12/01/19 08:50 EGDX 120850Z 28015KT 6000 -DZ OVC007 09/08 Q1025 GRN -DZ W (280°) 17.3mph 9°C 8°C
12/01/19 07:50 EGDX 120750Z AUTO 27015KT 9999 OVC011/// 09/08 Q1025 W (270°) 17.3mph 9°C 8°C
12/01/19 06:50 EGDX 120650Z AUTO 26014KT 9999 SCT007/// BKN014/// 09/08 Q1026 W (260°) 16.1mph 9°C 8°C
12/01/19 05:50 EGDX 120550Z AUTO 27016KT 9999 BKN016/// 09/07 Q1026 W (270°) 18.4mph 9°C 7°C
12/01/19 04:50 EGDX 120450Z AUTO 28012KT 7000 HZ BKN011/// 09/07 Q1027 HZ W (280°) 13.8mph 9°C 7°C
12/01/19 03:50 EGDX 120350Z AUTO 27013KT 9999 SCT004/// BKN020/// 09/08 Q1027 RERA W (270°) 15.0mph 9°C 8°C
12/01/19 02:50 EGDX 120250Z AUTO 28012KT 9999 FEW011/// BKN024/// 09/08 Q1029 W (280°) 13.8mph 9°C 8°C
12/01/19 01:50 EGDX 120150Z AUTO 28010KT 9999 FEW007/// BKN015/// 09/08 Q1029 W (280°) 11.5mph 9°C 8°C
12/01/19 00:50 EGDX 120050Z AUTO 28010KT 9999 FEW020/// BKN024/// BKN030/// 09/07 Q1029 W (280°) 11.5mph 9°C 7°C
11/01/19 23:50 EGDX 112350Z AUTO 29008KT 9999 BKN027/// 08/06 Q1030 WNW (290°) 9.2mph 8°C 6°C
11/01/19 22:50 EGDX 112250Z AUTO 29009KT 9999 OVC029/// 09/06 Q1031 WNW (290°) 10.4mph 9°C 6°C
11/01/19 21:50 EGDX 112150Z AUTO 29008KT 9999 FEW026/// BKN033/// 09/06 Q1031 WNW (290°) 9.2mph 9°C 6°C
11/01/19 20:50 EGDX 112050Z AUTO 29006KT 9999 OVC033/// 09/06 Q1031 WNW (290°) 6.9mph 9°C 6°C
11/01/19 19:50 EGDX 111950Z AUTO 29004KT 9999 OVC036/// 08/06 Q1031 WNW (290°) 4.6mph 8°C 6°C
11/01/19 18:50 EGDX 111850Z AUTO 29005KT 9999 OVC033/// 08/07 Q1032 WNW (290°) 5.8mph 8°C 7°C
11/01/19 17:50 EGDX 111750Z AUTO 29006KT 9999 OVC029/// 08/06 Q1032 WNW (290°) 6.9mph 8°C 6°C
11/01/19 16:50 EGDX 111650Z AUTO 29006KT 9999 OVC035/// 08/05 Q1032 WNW (290°) 6.9mph 8°C 5°C
11/01/19 15:50 EGDX 111550Z 27004KT 9999 BKN036 09/04 Q1032 BLU W (270°) 4.6mph 9°C 4°C
11/01/19 14:50 EGDX 111450Z 33006KT 9999 BKN030 09/04 Q1032 BLU NNW (330°) 6.9mph 9°C 4°C
11/01/19 13:50 EGDX 111350Z 31006KT 9999 BKN030 08/05 Q1032 BLU NW (310°) 6.9mph 8°C 5°C
11/01/19 12:50 EGDX 111250Z 30005KT 9999 SCT028 BKN034 08/06 Q1032 BLU WNW (300°) 5.8mph 8°C 6°C
11/01/19 11:50 EGDX 111150Z 31005KT 9999 BKN035 09/05 Q1033 BLU NW (310°) 5.8mph 9°C 5°C
11/01/19 10:50 EGDX 111050Z 35002KT 9999 SCT025 BKN034 08/05 Q1033 BLU N (350°) 2.3mph 8°C 5°C
11/01/19 09:50 EGDX 110950Z 32004KT 9999 SCT025 BKN037 07/05 Q1032 BLU NW (320°) 4.6mph 7°C 5°C
11/01/19 08:50 EGDX 110850Z 31005KT 9999 BKN035 07/04 Q1032 BLU NW (310°) 5.8mph 7°C 4°C
11/01/19 07:50 EGDX 110750Z AUTO 31007KT 9999 BKN046/// 07/04 Q1032 NW (310°) 8.1mph 7°C 4°C
11/01/19 06:50 EGDX 110650Z AUTO 33004KT 9999 BKN050/// 06/04 Q1031 RERA NNW (330°) 4.6mph 6°C 4°C
11/01/19 05:50 EGDX 110550Z AUTO 32006KT 9999 -RA BKN050/// 06/05 Q1031 -RA NW (320°) 6.9mph 6°C 5°C
11/01/19 04:50 EGDX 110450Z AUTO 31006KT 9999 OVC050/// 07/05 Q1031 NW (310°) 6.9mph 7°C 5°C
11/01/19 03:50 EGDX 110350Z AUTO 31005KT 9999 BKN050/// 07/05 Q1031 NW (310°) 5.8mph 7°C 5°C
11/01/19 02:50 EGDX 110250Z AUTO 31005KT 9999 BKN050/// 07/05 Q1031 NW (310°) 5.8mph 7°C 5°C
11/01/19 01:50 EGDX 110150Z AUTO 31007KT 9999 OVC050/// 07/04 Q1031 NW (310°) 8.1mph 7°C 4°C
11/01/19 00:50 EGDX 110050Z AUTO 31006KT 9999 BKN049/// 08/03 Q1031 NW (310°) 6.9mph 8°C 3°C
10/01/19 23:50 EGDX 102350Z AUTO 32004KT 9999 SCT044/// BKN050/// 08/03 Q1031 NW (320°) 4.6mph 8°C 3°C
10/01/19 22:50 EGDX 102250Z AUTO 31003KT 9999 OVC044/// 08/04 Q1032 NW (310°) 3.5mph 8°C 4°C
10/01/19 21:50 EGDX 102150Z AUTO 27004KT 9999 BKN044/// 08/06 Q1032 W (270°) 4.6mph 8°C 6°C
10/01/19 20:50 EGDX 102050Z AUTO 26005KT 9999 FEW032/// BKN039/// BKN047/// 07/06 Q1031 W (260°) 5.8mph 7°C 6°C
10/01/19 19:50 EGDX 101950Z AUTO 28005KT 9999 BKN044/// 07/06 Q1031 W (280°) 5.8mph 7°C 6°C
10/01/19 18:50 EGDX 101850Z AUTO 28005KT 9999 BKN045/// 06/05 Q1031 W (280°) 5.8mph 6°C 5°C
10/01/19 17:50 EGDX 101750Z AUTO 29007KT 9999 SCT049/// 06/04 Q1031 WNW (290°) 8.1mph 6°C 4°C
10/01/19 16:50 EGDX 101650Z AUTO 28007KT 9999 SCT017/// 06/04 Q1031 W (280°) 8.1mph 6°C 4°C
10/01/19 15:50 EGDX 101550Z 28008KT 9999 BKN016 06/04 Q1031 WHT W (280°) 9.2mph 6°C 4°C
10/01/19 14:50 EGDX 101450Z 29007KT 9999 BKN017 06/03 Q1031 WHT WNW (290°) 8.1mph 6°C 3°C
10/01/19 13:50 EGDX 101350Z 28006KT 9999 BKN017 06/02 Q1031 WHT W (280°) 6.9mph 6°C 2°C
10/01/19 12:50 EGDX 101250Z 31005KT 9999 BKN018 06/02 Q1031 WHT NW (310°) 5.8mph 6°C 2°C
10/01/19 11:50 EGDX 101150Z 30004KT 9999 SCT030 BKN040 05/00 Q1032 BLU WNW (300°) 4.6mph 5°C 0°C
10/01/19 10:50 EGDX 101050Z 34003KT 9999 BKN040 04/01 Q1032 BLU NNW (340°) 3.5mph 4°C 1°C
10/01/19 09:50 EGDX 100950Z 02002KT 9999 SCT040 02/M00 Q1032 BLU NNE (20°) 2.3mph 2°C 0°C
10/01/19 08:50 EGDX 100850Z 02002KT 9999 SCT042 01/M01 Q1032 BLU NNE (20°) 2.3mph 1°C -1°C
10/01/19 07:50 EGDX 100750Z AUTO 35003KT 9999 FEW080/// 01/M01 Q1032 N (350°) 3.5mph 1°C -1°C
10/01/19 06:50 EGDX 100650Z AUTO 35002KT 9999 BKN080/// 00/M02 Q1031 N (350°) 2.3mph 0°C -2°C
10/01/19 05:50 EGDX 100550Z AUTO 34002KT 9999 SCT080/// M01/M02 Q1032 NNW (340°) 2.3mph -1°C -2°C
10/01/19 04:50 EGDX 100450Z AUTO 04002KT 9999 FEW250/// M01/M03 Q1032 NE (40°) 2.3mph -1°C -3°C